sensor_id;sensor_type;location;lat;lon;timestamp;pressure;altitude;pressure_sealevel;temperature;humidity
73016;BME280;61893;50.074;14.440;2022-11-18T00:02:05;96945.25;;;4.50;98.22
73016;BME280;61893;50.074;14.440;2022-11-18T00:04:38;96943.09;;;4.71;99.05
73016;BME280;61893;50.074;14.440;2022-11-18T00:07:12;96950.38;;;4.78;98.53
73016;BME280;61893;50.074;14.440;2022-11-18T00:09:53;96935.44;;;4.60;98.36
73016;BME280;61893;50.074;14.440;2022-11-18T00:12:21;96940.41;;;4.63;99.04
73016;BME280;61893;50.074;14.440;2022-11-18T00:15:41;96941.44;;;4.96;97.59
73016;BME280;61893;50.074;14.440;2022-11-18T00:18:30;96933.91;;;4.76;97.41
73016;BME280;61893;50.074;14.440;2022-11-18T00:21:26;96937.16;;;4.69;97.71
73016;BME280;61893;50.074;14.440;2022-11-18T00:25:24;96939.63;;;4.71;97.86
73016;BME280;61893;50.074;14.440;2022-11-18T00:28:52;96931.31;;;4.58;98.12
73016;BME280;61893;50.074;14.440;2022-11-18T00:31:54;96932.28;;;4.57;98.30
73016;BME280;61893;50.074;14.440;2022-11-18T00:34:44;96935.47;;;4.42;98.40
73016;BME280;61893;50.074;14.440;2022-11-18T00:38:48;96936.69;;;4.48;99.47
73016;BME280;61893;50.074;14.440;2022-11-18T00:44:40;96927.59;;;4.42;98.96
73016;BME280;61893;50.074;14.440;2022-11-18T00:47:44;96928.13;;;4.28;99.40
73016;BME280;61893;50.074;14.440;2022-11-18T00:50:11;96932.41;;;4.29;99.73
73016;BME280;61893;50.074;14.440;2022-11-18T00:52:36;96939.28;;;4.22;100.00
73016;BME280;61893;50.074;14.440;2022-11-18T00:55:03;96949.25;;;4.00;100.00
73016;BME280;61893;50.074;14.440;2022-11-18T00:57:29;96944.31;;;3.97;100.00
73016;BME280;61893;50.074;14.440;2022-11-18T00:59:55;96937.75;;;4.19;100.00
73016;BME280;61893;50.074;14.440;2022-11-18T01:02:20;96939.19;;;4.14;100.00
73016;BME280;61893;50.074;14.440;2022-11-18T01:04:47;96938.44;;;4.21;100.00
73016;BME280;61893;50.074;14.440;2022-11-18T01:07:12;96940.47;;;4.27;99.82
73016;BME280;61893;50.074;14.440;2022-11-18T01:09:40;96951.91;;;4.18;100.00
73016;BME280;61893;50.074;14.440;2022-11-18T01:12:09;96949.06;;;4.29;100.00
73016;BME280;61893;50.074;14.440;2022-11-18T01:15:02;96945.94;;;4.34;99.67
73016;BME280;61893;50.074;14.440;2022-11-18T01:17:29;96942.00;;;4.12;99.50
73016;BME280;61893;50.074;14.440;2022-11-18T01:19:56;96935.88;;;4.29;100.00
73016;BME280;61893;50.074;14.440;2022-11-18T01:22:22;96937.09;;;4.35;99.83
73016;BME280;61893;50.074;14.440;2022-11-18T01:24:49;96933.47;;;4.36;98.91
73016;BME280;61893;50.074;14.440;2022-11-18T01:27:15;96930.91;;;4.09;100.00
73016;BME280;61893;50.074;14.440;2022-11-18T01:29:41;96933.25;;;4.12;100.00
73016;BME280;61893;50.074;14.440;2022-11-18T01:32:07;96926.56;;;3.99;100.00
73016;BME280;61893;50.074;14.440;2022-11-18T01:34:33;96925.81;;;4.25;99.57
73016;BME280;61893;50.074;14.440;2022-11-18T01:36:59;96922.13;;;4.18;99.29
73016;BME280;61893;50.074;14.440;2022-11-18T01:39:29;96929.19;;;4.17;100.00
73016;BME280;61893;50.074;14.440;2022-11-18T01:41:56;96923.78;;;4.19;99.39
73016;BME280;61893;50.074;14.440;2022-11-18T01:49:58;96911.38;;;3.93;100.00
73016;BME280;61893;50.074;14.440;2022-11-18T01:52:24;96905.44;;;3.91;100.00
73016;BME280;61893;50.074;14.440;2022-11-18T01:54:58;96904.00;;;3.97;100.00
73016;BME280;61893;50.074;14.440;2022-11-18T01:57:33;96903.41;;;4.03;100.00
73016;BME280;61893;50.074;14.440;2022-11-18T02:00:03;96901.22;;;4.16;99.34
73016;BME280;61893;50.074;14.440;2022-11-18T02:02:41;96897.19;;;4.04;100.00
73016;BME280;61893;50.074;14.440;2022-11-18T02:05:53;96903.56;;;4.01;100.00
73016;BME280;61893;50.074;14.440;2022-11-18T02:10:56;96904.00;;;3.97;100.00
73016;BME280;61893;50.074;14.440;2022-11-18T02:13:22;96904.19;;;3.95;100.00
73016;BME280;61893;50.074;14.440;2022-11-18T02:18:32;96904.25;;;4.03;100.00
73016;BME280;61893;50.074;14.440;2022-11-18T02:29:25;96898.00;;;3.87;100.00
73016;BME280;61893;50.074;14.440;2022-11-18T02:32:10;96899.22;;;3.92;100.00
73016;BME280;61893;50.074;14.440;2022-11-18T02:35:08;96893.47;;;3.97;100.00
73016;BME280;61893;50.074;14.440;2022-11-18T02:38:11;96887.31;;;3.88;100.00
73016;BME280;61893;50.074;14.440;2022-11-18T02:40:42;96890.44;;;3.83;100.00
73016;BME280;61893;50.074;14.440;2022-11-18T02:43:09;96892.19;;;3.65;100.00
73016;BME280;61893;50.074;14.440;2022-11-18T02:45:41;96886.50;;;3.70;100.00
73016;BME280;61893;50.074;14.440;2022-11-18T02:48:10;96889.56;;;3.65;100.00
73016;BME280;61893;50.074;14.440;2022-11-18T02:51:06;96888.66;;;3.74;100.00
73016;BME280;61893;50.074;14.440;2022-11-18T02:54:40;96886.41;;;3.79;100.00
73016;BME280;61893;50.074;14.440;2022-11-18T02:57:11;96879.38;;;3.98;100.00
73016;BME280;61893;50.074;14.440;2022-11-18T02:59:38;96883.84;;;4.05;100.00
73016;BME280;61893;50.074;14.440;2022-11-18T03:02:04;96871.00;;;4.02;99.48
73016;BME280;61893;50.074;14.440;2022-11-18T03:04:30;96878.97;;;4.11;98.75
73016;BME280;61893;50.074;14.440;2022-11-18T03:09:50;96878.41;;;4.25;98.94
73016;BME280;61893;50.074;14.440;2022-11-18T03:12:46;96878.06;;;4.02;98.42
73016;BME280;61893;50.074;14.440;2022-11-18T03:21:36;96876.34;;;3.93;98.98
73016;BME280;61893;50.074;14.440;2022-11-18T03:24:32;96874.75;;;4.00;99.73
73016;BME280;61893;50.074;14.440;2022-11-18T03:27:11;96875.44;;;4.02;99.65
73016;BME280;61893;50.074;14.440;2022-11-18T03:30:08;96875.88;;;3.97;99.62
73016;BME280;61893;50.074;14.440;2022-11-18T03:33:31;96882.50;;;4.01;99.32
73016;BME280;61893;50.074;14.440;2022-11-18T03:37:11;96874.31;;;4.04;98.84
73016;BME280;61893;50.074;14.440;2022-11-18T03:41:39;96872.13;;;4.18;98.12
73016;BME280;61893;50.074;14.440;2022-11-18T03:49:28;96872.31;;;4.24;97.27
73016;BME280;61893;50.074;14.440;2022-11-18T03:52:55;96859.16;;;4.24;97.68
73016;BME280;61893;50.074;14.440;2022-11-18T03:57:15;96865.94;;;4.27;97.84
73016;BME280;61893;50.074;14.440;2022-11-18T04:01:00;96867.06;;;4.24;97.06
73016;BME280;61893;50.074;14.440;2022-11-18T04:04:52;96868.66;;;4.43;96.96
73016;BME280;61893;50.074;14.440;2022-11-18T04:08:26;96869.44;;;4.36;97.70
73016;BME280;61893;50.074;14.440;2022-11-18T04:11:39;96875.09;;;4.41;96.68
73016;BME280;61893;50.074;14.440;2022-11-18T04:15:16;96869.59;;;4.34;97.41
73016;BME280;61893;50.074;14.440;2022-11-18T04:18:35;96868.25;;;4.30;96.74
73016;BME280;61893;50.074;14.440;2022-11-18T04:22:11;96865.56;;;4.22;96.93
73016;BME280;61893;50.074;14.440;2022-11-18T04:25:05;96865.34;;;3.97;99.46
73016;BME280;61893;50.074;14.440;2022-11-18T04:27:34;96871.22;;;3.91;99.63
73016;BME280;61893;50.074;14.440;2022-11-18T04:30:15;96878.59;;;3.88;99.37
73016;BME280;61893;50.074;14.440;2022-11-18T04:33:21;96877.31;;;3.74;100.00
73016;BME280;61893;50.074;14.440;2022-11-18T04:37:00;96876.72;;;3.80;99.94
73016;BME280;61893;50.074;14.440;2022-11-18T04:39:49;96880.41;;;3.87;99.16
73016;BME280;61893;50.074;14.440;2022-11-18T04:42:14;96886.34;;;3.89;98.74
73016;BME280;61893;50.074;14.440;2022-11-18T04:44:52;96886.13;;;3.65;99.38
73016;BME280;61893;50.074;14.440;2022-11-18T04:47:49;96886.47;;;3.52;100.00
73016;BME280;61893;50.074;14.440;2022-11-18T04:50:49;96893.72;;;3.68;99.74
73016;BME280;61893;50.074;14.440;2022-11-18T04:54:24;96894.16;;;3.63;99.87
73016;BME280;61893;50.074;14.440;2022-11-18T04:57:21;96901.59;;;3.68;99.59
73016;BME280;61893;50.074;14.440;2022-11-18T05:00:05;96895.00;;;3.81;99.85
73016;BME280;61893;50.074;14.440;2022-11-18T05:02:31;96889.13;;;3.88;98.93
73016;BME280;61893;50.074;14.440;2022-11-18T05:05:13;96885.59;;;3.79;99.45
73016;BME280;61893;50.074;14.440;2022-11-18T05:07:45;96885.38;;;3.90;98.91
73016;BME280;61893;50.074;14.440;2022-11-18T05:10:32;96890.78;;;4.06;98.33
73016;BME280;61893;50.074;14.440;2022-11-18T05:13:18;96886.72;;;4.12;98.13
73016;BME280;61893;50.074;14.440;2022-11-18T05:15:59;96885.88;;;4.12;96.91
73016;BME280;61893;50.074;14.440;2022-11-18T05:18:25;96879.88;;;4.01;96.38
73016;BME280;61893;50.074;14.440;2022-11-18T05:20:51;96878.81;;;4.12;97.74
73016;BME280;61893;50.074;14.440;2022-11-18T05:23:17;96872.31;;;4.24;97.01
73016;BME280;61893;50.074;14.440;2022-11-18T05:25:49;96883.53;;;4.09;97.60
73016;BME280;61893;50.074;14.440;2022-11-18T05:28:17;96887.22;;;4.16;97.86
73016;BME280;61893;50.074;14.440;2022-11-18T05:31:07;96891.34;;;4.36;97.14
73016;BME280;61893;50.074;14.440;2022-11-18T05:33:33;96877.84;;;4.39;95.82
73016;BME280;61893;50.074;14.440;2022-11-18T05:36:17;96882.00;;;4.42;95.49
73016;BME280;61893;50.074;14.440;2022-11-18T05:38:43;96880.63;;;4.38;95.36
73016;BME280;61893;50.074;14.440;2022-11-18T05:41:09;96876.97;;;4.31;95.68
73016;BME280;61893;50.074;14.440;2022-11-18T05:43:55;96873.16;;;4.25;95.22
73016;BME280;61893;50.074;14.440;2022-11-18T05:46:22;96878.69;;;4.40;95.79
73016;BME280;61893;50.074;14.440;2022-11-18T05:48:47;96889.59;;;4.45;95.92
73016;BME280;61893;50.074;14.440;2022-11-18T05:51:21;96889.94;;;4.50;95.52
73016;BME280;61893;50.074;14.440;2022-11-18T05:53:50;96895.97;;;4.42;95.25
73016;BME280;61893;50.074;14.440;2022-11-18T05:56:41;96892.63;;;4.32;95.61
73016;BME280;61893;50.074;14.440;2022-11-18T05:59:11;96900.59;;;4.22;95.56
73016;BME280;61893;50.074;14.440;2022-11-18T06:02:05;96895.19;;;4.24;96.14
73016;BME280;61893;50.074;14.440;2022-11-18T06:05:08;96897.53;;;4.27;96.29
73016;BME280;61893;50.074;14.440;2022-11-18T06:07:42;96907.16;;;4.18;96.44
73016;BME280;61893;50.074;14.440;2022-11-18T06:10:23;96908.50;;;4.22;95.74
73016;BME280;61893;50.074;14.440;2022-11-18T06:13:15;96910.38;;;4.30;95.94
73016;BME280;61893;50.074;14.440;2022-11-18T06:16:08;96909.00;;;4.26;96.01
73016;BME280;61893;50.074;14.440;2022-11-18T06:18:34;96905.97;;;4.13;96.65
73016;BME280;61893;50.074;14.440;2022-11-18T06:21:03;96910.16;;;4.05;96.66
73016;BME280;61893;50.074;14.440;2022-11-18T06:23:42;96912.59;;;3.99;96.29
73016;BME280;61893;50.074;14.440;2022-11-18T06:26:35;96911.53;;;3.92;97.20
73016;BME280;61893;50.074;14.440;2022-11-18T06:29:18;96916.13;;;3.90;97.05
73016;BME280;61893;50.074;14.440;2022-11-18T06:32:03;96922.06;;;4.10;96.64
73016;BME280;61893;50.074;14.440;2022-11-18T06:35:23;96918.66;;;4.17;97.10
73016;BME280;61893;50.074;14.440;2022-11-18T06:38:06;96921.84;;;4.21;96.36
73016;BME280;61893;50.074;14.440;2022-11-18T06:40:49;96921.06;;;4.28;96.85
73016;BME280;61893;50.074;14.440;2022-11-18T06:43:53;96923.84;;;3.91;97.58
73016;BME280;61893;50.074;14.440;2022-11-18T06:46:21;96925.06;;;4.33;97.93
73016;BME280;61893;50.074;14.440;2022-11-18T06:49:12;96931.19;;;4.41;97.16
73016;BME280;61893;50.074;14.440;2022-11-18T06:51:41;96936.22;;;4.53;95.90
73016;BME280;61893;50.074;14.440;2022-11-18T06:54:17;96927.09;;;4.65;96.78
73016;BME280;61893;50.074;14.440;2022-11-18T06:56:48;96930.28;;;4.77;94.98
73016;BME280;61893;50.074;14.440;2022-11-18T06:59:29;96928.06;;;4.64;94.37
73016;BME280;61893;50.074;14.440;2022-11-18T07:02:13;96925.53;;;4.54;95.74
73016;BME280;61893;50.074;14.440;2022-11-18T07:05:00;96932.91;;;4.50;95.71
73016;BME280;61893;50.074;14.440;2022-11-18T07:07:51;96935.13;;;4.63;94.99
73016;BME280;61893;50.074;14.440;2022-11-18T07:11:03;96944.88;;;4.45;94.03
73016;BME280;61893;50.074;14.440;2022-11-18T07:13:41;96950.97;;;4.45;94.36
73016;BME280;61893;50.074;14.440;2022-11-18T07:16:30;96953.84;;;4.34;95.22
73016;BME280;61893;50.074;14.440;2022-11-18T07:19:48;96955.00;;;4.14;96.39
73016;BME280;61893;50.074;14.440;2022-11-18T07:22:26;96956.06;;;4.21;96.58
73016;BME280;61893;50.074;14.440;2022-11-18T07:25:25;96963.78;;;4.04;96.72
73016;BME280;61893;50.074;14.440;2022-11-18T07:28:05;96967.41;;;4.03;97.52
73016;BME280;61893;50.074;14.440;2022-11-18T07:31:18;96958.38;;;3.88;97.48
73016;BME280;61893;50.074;14.440;2022-11-18T07:34:44;96962.72;;;3.97;98.09
73016;BME280;61893;50.074;14.440;2022-11-18T07:38:11;96962.72;;;3.97;97.42
73016;BME280;61893;50.074;14.440;2022-11-18T07:41:28;96965.91;;;4.01;97.83
73016;BME280;61893;50.074;14.440;2022-11-18T07:44:48;96962.81;;;3.88;95.96
73016;BME280;61893;50.074;14.440;2022-11-18T07:47:32;96960.69;;;3.91;97.51
73016;BME280;61893;50.074;14.440;2022-11-18T07:50:32;96957.25;;;4.09;96.87
73016;BME280;61893;50.074;14.440;2022-11-18T07:53:00;96969.41;;;3.92;97.95
73016;BME280;61893;50.074;14.440;2022-11-18T07:55:26;96973.84;;;3.91;97.18
73016;BME280;61893;50.074;14.440;2022-11-18T07:57:54;96969.09;;;3.95;96.85
73016;BME280;61893;50.074;14.440;2022-11-18T08:02:55;96961.50;;;3.92;95.99
73016;BME280;61893;50.074;14.440;2022-11-18T08:05:21;96963.09;;;3.84;96.74
73016;BME280;61893;50.074;14.440;2022-11-18T08:07:46;96960.38;;;3.94;96.70
73016;BME280;61893;50.074;14.440;2022-11-18T08:10:13;96969.13;;;4.13;96.51
73016;BME280;61893;50.074;14.440;2022-11-18T08:12:39;96963.09;;;4.20;95.51
73016;BME280;61893;50.074;14.440;2022-11-18T08:15:06;96964.19;;;4.10;96.06
73016;BME280;61893;50.074;14.440;2022-11-18T08:17:52;96962.06;;;4.31;95.55
73016;BME280;61893;50.074;14.440;2022-11-18T08:20:20;96961.97;;;4.41;93.99
73016;BME280;61893;50.074;14.440;2022-11-18T08:22:45;96959.63;;;4.38;94.29
73016;BME280;61893;50.074;14.440;2022-11-18T08:25:22;96958.19;;;4.61;94.97
73016;BME280;61893;50.074;14.440;2022-11-18T08:27:56;96955.31;;;4.81;94.43
73016;BME280;61893;50.074;14.440;2022-11-18T08:30:28;96952.16;;;5.03;92.59
73016;BME280;61893;50.074;14.440;2022-11-18T08:32:54;96958.81;;;5.07;90.16
73016;BME280;61893;50.074;14.440;2022-11-18T08:35:32;96954.69;;;4.79;90.06
73016;BME280;61893;50.074;14.440;2022-11-18T08:38:41;96960.41;;;4.74;92.21
73016;BME280;61893;50.074;14.440;2022-11-18T08:42:01;96955.63;;;4.78;91.82
73016;BME280;61893;50.074;14.440;2022-11-18T08:44:51;96959.00;;;4.88;91.50
73016;BME280;61893;50.074;14.440;2022-11-18T08:47:19;96961.44;;;4.81;91.24
73016;BME280;61893;50.074;14.440;2022-11-18T08:50:08;96972.63;;;4.83;92.02
73016;BME280;61893;50.074;14.440;2022-11-18T08:52:45;96974.34;;;4.66;92.84
73016;BME280;61893;50.074;14.440;2022-11-18T08:55:46;96969.44;;;4.71;92.54
73016;BME280;61893;50.074;14.440;2022-11-18T08:58:34;96977.88;;;4.75;92.05
73016;BME280;61893;50.074;14.440;2022-11-18T09:01:16;96974.69;;;4.89;93.35
73016;BME280;61893;50.074;14.440;2022-11-18T09:04:09;96965.94;;;4.89;92.80
73016;BME280;61893;50.074;14.440;2022-11-18T09:07:04;96977.72;;;4.77;91.55
73016;BME280;61893;50.074;14.440;2022-11-18T09:09:59;96974.38;;;4.48;92.88
73016;BME280;61893;50.074;14.440;2022-11-18T09:13:44;96983.78;;;4.51;93.30
73016;BME280;61893;50.074;14.440;2022-11-18T09:17:31;96976.34;;;4.46;93.81
73016;BME280;61893;50.074;14.440;2022-11-18T09:25:43;96974.75;;;4.54;93.27
73016;BME280;61893;50.074;14.440;2022-11-18T09:30:01;96977.75;;;4.59;93.39
73016;BME280;61893;50.074;14.440;2022-11-18T09:34:20;96972.28;;;4.34;94.16
73016;BME280;61893;50.074;14.440;2022-11-18T09:37:24;96976.09;;;4.58;93.82
73016;BME280;61893;50.074;14.440;2022-11-18T09:39:53;96981.44;;;4.48;94.27
73016;BME280;61893;50.074;14.440;2022-11-18T09:42:59;96983.31;;;4.56;93.48
73016;BME280;61893;50.074;14.440;2022-11-18T09:49:31;96987.88;;;4.71;94.06
73016;BME280;61893;50.074;14.440;2022-11-18T09:52:18;96995.66;;;4.73;91.81
73016;BME280;61893;50.074;14.440;2022-11-18T09:54:47;97002.19;;;4.69;92.60
73016;BME280;61893;50.074;14.440;2022-11-18T09:57:37;96992.56;;;4.60;92.11
73016;BME280;61893;50.074;14.440;2022-11-18T10:00:38;96998.00;;;4.40;94.53
73016;BME280;61893;50.074;14.440;2022-11-18T10:03:30;96992.25;;;4.63;93.35
73016;BME280;61893;50.074;14.440;2022-11-18T10:06:25;96995.88;;;4.62;93.67
73016;BME280;61893;50.074;14.440;2022-11-18T10:09:41;96992.53;;;4.78;93.03
73016;BME280;61893;50.074;14.440;2022-11-18T10:12:49;96991.13;;;4.65;94.28
73016;BME280;61893;50.074;14.440;2022-11-18T10:21:49;96980.94;;;4.44;94.97
73016;BME280;61893;50.074;14.440;2022-11-18T10:24:34;96994.47;;;4.14;95.54
73016;BME280;61893;50.074;14.440;2022-11-18T10:27:36;96990.19;;;4.31;96.02
73016;BME280;61893;50.074;14.440;2022-11-18T10:31:05;97000.19;;;4.27;96.14
73016;BME280;61893;50.074;14.440;2022-11-18T10:34:17;97006.19;;;4.37;96.27
73016;BME280;61893;50.074;14.440;2022-11-18T10:41:00;96998.22;;;4.29;96.27
73016;BME280;61893;50.074;14.440;2022-11-18T10:44:38;96987.28;;;12.55;100.00
73016;BME280;61893;50.074;14.440;2022-11-18T10:47:30;96979.84;;;17.06;63.07
73016;BME280;61893;50.074;14.440;2022-11-18T10:49:58;96985.16;;;18.53;57.48
73016;BME280;61893;50.074;14.440;2022-11-18T10:52:25;96981.03;;;17.46;47.91
73016;BME280;61893;50.074;14.440;2022-11-18T10:57:39;97001.50;;;13.36;63.03
73016;BME280;61893;50.074;14.440;2022-11-18T11:02:58;96997.88;;;11.46;67.41
73016;BME280;61893;50.074;14.440;2022-11-18T11:05:24;96995.59;;;11.08;69.95
73016;BME280;61893;50.074;14.440;2022-11-18T11:08:03;97002.25;;;10.18;71.60
73016;BME280;61893;50.074;14.440;2022-11-18T11:10:29;97001.63;;;9.65;72.46
73016;BME280;61893;50.074;14.440;2022-11-18T11:12:59;97005.00;;;9.74;76.90
73016;BME280;61893;50.074;14.440;2022-11-18T11:15:39;96998.84;;;9.14;74.79
73016;BME280;61893;50.074;14.440;2022-11-18T11:18:22;96997.84;;;9.30;78.89
73016;BME280;61893;50.074;14.440;2022-11-18T11:21:13;96997.22;;;10.23;82.25
73016;BME280;61893;50.074;14.440;2022-11-18T11:23:39;97008.41;;;10.55;78.14
73016;BME280;61893;50.074;14.440;2022-11-18T11:32:04;97006.00;;;10.24;70.59
73016;BME280;61893;50.074;14.440;2022-11-18T11:35:02;97001.50;;;9.88;75.09
73016;BME280;61893;50.074;14.440;2022-11-18T11:37:57;97017.25;;;7.53;74.69
73016;BME280;61893;50.074;14.440;2022-11-18T11:41:13;97013.38;;;6.50;80.10
73016;BME280;61893;50.074;14.440;2022-11-18T11:44:39;97025.34;;;5.96;83.19
73016;BME280;61893;50.074;14.440;2022-11-18T11:59:28;97045.91;;;4.08;93.01
73016;BME280;61893;50.074;14.440;2022-11-18T12:05:34;97051.31;;;3.51;94.07
73016;BME280;61893;50.074;14.440;2022-11-18T12:08:58;97061.06;;;3.41;94.46
73016;BME280;61893;50.074;14.440;2022-11-18T12:11:42;97055.16;;;3.29;94.94
73016;BME280;61893;50.074;14.440;2022-11-18T12:14:43;97058.06;;;3.16;95.54
73016;BME280;61893;50.074;14.440;2022-11-18T12:23:21;97068.91;;;2.94;95.63
73016;BME280;61893;50.074;14.440;2022-11-18T12:26:48;97074.31;;;2.92;95.55
73016;BME280;61893;50.074;14.440;2022-11-18T12:30:16;97080.53;;;2.82;96.79
73016;BME280;61893;50.074;14.440;2022-11-18T12:33:50;97075.97;;;2.74;96.62
73016;BME280;61893;50.074;14.440;2022-11-18T12:36:54;97090.34;;;2.60;95.81
73016;BME280;61893;50.074;14.440;2022-11-18T12:40:41;97086.88;;;2.40;95.00
73016;BME280;61893;50.074;14.440;2022-11-18T12:44:50;97095.44;;;2.33;95.19
73016;BME280;61893;50.074;14.440;2022-11-18T12:48:54;97101.22;;;2.17;96.42
73016;BME280;61893;50.074;14.440;2022-11-18T12:55:02;97100.16;;;2.39;96.41
73016;BME280;61893;50.074;14.440;2022-11-18T12:57:42;97106.78;;;2.33;96.16
73016;BME280;61893;50.074;14.440;2022-11-18T13:03:08;97103.84;;;2.17;95.90
73016;BME280;61893;50.074;14.440;2022-11-18T13:06:32;97120.53;;;2.06;95.90
73016;BME280;61893;50.074;14.440;2022-11-18T13:09:22;97116.91;;;1.97;96.14
73016;BME280;61893;50.074;14.440;2022-11-18T13:11:59;97117.50;;;2.11;96.55
73016;BME280;61893;50.074;14.440;2022-11-18T13:14:38;97113.34;;;2.08;97.02
73016;BME280;61893;50.074;14.440;2022-11-18T13:17:36;97115.69;;;2.01;96.39
73016;BME280;61893;50.074;14.440;2022-11-18T13:20:38;97112.50;;;1.98;96.21
73016;BME280;61893;50.074;14.440;2022-11-18T13:34:27;97121.38;;;2.16;97.25
73016;BME280;61893;50.074;14.440;2022-11-18T13:37:17;97124.97;;;2.15;97.51
73016;BME280;61893;50.074;14.440;2022-11-18T13:40:20;97127.06;;;2.31;96.11
73016;BME280;61893;50.074;14.440;2022-11-18T13:42:52;97124.97;;;2.25;96.35
73016;BME280;61893;50.074;14.440;2022-11-18T13:45:43;97140.47;;;2.28;96.67
73016;BME280;61893;50.074;14.440;2022-11-18T13:48:33;97149.69;;;2.13;96.05
73016;BME280;61893;50.074;14.440;2022-11-18T13:51:17;97149.56;;;2.24;96.46
73016;BME280;61893;50.074;14.440;2022-11-18T13:54:04;97148.28;;;2.09;96.16
73016;BME280;61893;50.074;14.440;2022-11-18T13:56:32;97146.78;;;2.16;97.04
73016;BME280;61893;50.074;14.440;2022-11-18T14:00:19;97138.00;;;2.27;96.35
73016;BME280;61893;50.074;14.440;2022-11-18T14:07:29;97145.28;;;2.23;96.45
73016;BME280;61893;50.074;14.440;2022-11-18T14:10:55;97147.34;;;2.19;96.35
73016;BME280;61893;50.074;14.440;2022-11-18T14:14:44;97146.63;;;2.17;97.53
73016;BME280;61893;50.074;14.440;2022-11-18T14:17:49;97147.72;;;2.05;97.02
73016;BME280;61893;50.074;14.440;2022-11-18T14:21:01;97147.00;;;2.03;96.65
73016;BME280;61893;50.074;14.440;2022-11-18T14:23:47;97145.50;;;2.00;96.54
73016;BME280;61893;50.074;14.440;2022-11-18T14:26:29;97152.25;;;2.03;96.09
73016;BME280;61893;50.074;14.440;2022-11-18T14:29:14;97158.91;;;2.07;96.11
73016;BME280;61893;50.074;14.440;2022-11-18T14:33:01;97171.69;;;1.91;93.99
73016;BME280;61893;50.074;14.440;2022-11-18T14:36:09;97178.78;;;1.69;94.23
73016;BME280;61893;50.074;14.440;2022-11-18T14:39:24;97186.56;;;1.60;94.58
73016;BME280;61893;50.074;14.440;2022-11-18T14:43:09;97191.25;;;1.56;95.35
73016;BME280;61893;50.074;14.440;2022-11-18T14:46:31;97187.72;;;1.46;95.65
73016;BME280;61893;50.074;14.440;2022-11-18T14:49:26;97193.69;;;1.48;96.49
73016;BME280;61893;50.074;14.440;2022-11-18T14:52:35;97198.47;;;1.64;96.25
73016;BME280;61893;50.074;14.440;2022-11-18T14:55:36;97195.38;;;1.49;96.13
73016;BME280;61893;50.074;14.440;2022-11-18T14:58:59;97210.22;;;1.48;95.97
73016;BME280;61893;50.074;14.440;2022-11-18T15:01:59;97208.38;;;1.39;96.24
73016;BME280;61893;50.074;14.440;2022-11-18T15:05:08;97213.94;;;1.46;96.29
73016;BME280;61893;50.074;14.440;2022-11-18T15:08:17;97220.41;;;1.42;95.33
73016;BME280;61893;50.074;14.440;2022-11-18T15:10:50;97223.03;;;1.21;95.79
73016;BME280;61893;50.074;14.440;2022-11-18T15:13:38;97215.59;;;1.26;95.66
73016;BME280;61893;50.074;14.440;2022-11-18T15:16:33;97217.53;;;1.24;96.05
73016;BME280;61893;50.074;14.440;2022-11-18T15:20:18;97227.97;;;1.35;95.97
73016;BME280;61893;50.074;14.440;2022-11-18T15:23:32;97232.44;;;1.23;95.39
73016;BME280;61893;50.074;14.440;2022-11-18T15:26:40;97240.28;;;1.23;95.44
73016;BME280;61893;50.074;14.440;2022-11-18T15:29:21;97249.22;;;1.21;94.36
73016;BME280;61893;50.074;14.440;2022-11-18T15:35:42;97251.16;;;1.07;95.11
73016;BME280;61893;50.074;14.440;2022-11-18T15:38:20;97255.84;;;1.04;95.46
73016;BME280;61893;50.074;14.440;2022-11-18T15:40:46;97260.00;;;1.06;95.25
73016;BME280;61893;50.074;14.440;2022-11-18T15:43:12;97267.88;;;0.95;94.79
73016;BME280;61893;50.074;14.440;2022-11-18T15:45:38;97274.28;;;1.02;94.93
73016;BME280;61893;50.074;14.440;2022-11-18T15:48:06;97272.72;;;1.00;95.28
73016;BME280;61893;50.074;14.440;2022-11-18T15:50:50;97277.88;;;1.01;95.77
73016;BME280;61893;50.074;14.440;2022-11-18T15:53:37;97285.78;;;0.79;96.81
73016;BME280;61893;50.074;14.440;2022-11-18T15:56:31;97283.94;;;0.90;96.39
73016;BME280;61893;50.074;14.440;2022-11-18T16:00:10;97291.19;;;1.09;96.80
73016;BME280;61893;50.074;14.440;2022-11-18T16:07:22;97306.47;;;1.25;95.09
73016;BME280;61893;50.074;14.440;2022-11-18T16:11:05;97314.25;;;1.16;94.64
73016;BME280;61893;50.074;14.440;2022-11-18T16:13:50;97309.66;;;0.97;95.47
73016;BME280;61893;50.074;14.440;2022-11-18T16:16:22;97322.16;;;0.93;96.30
73016;BME280;61893;50.074;14.440;2022-11-18T16:19:09;97319.28;;;0.96;96.36
73016;BME280;61893;50.074;14.440;2022-11-18T16:21:56;97325.63;;;0.82;96.36
73016;BME280;61893;50.074;14.440;2022-11-18T16:24:35;97335.75;;;0.87;96.46
73016;BME280;61893;50.074;14.440;2022-11-18T16:28:51;97342.53;;;0.78;95.67
73016;BME280;61893;50.074;14.440;2022-11-18T16:31:52;97343.03;;;0.72;95.15
73016;BME280;61893;50.074;14.440;2022-11-18T16:34:47;97351.00;;;0.59;95.10
73016;BME280;61893;50.074;14.440;2022-11-18T16:38:06;97350.50;;;0.54;95.86
73016;BME280;61893;50.074;14.440;2022-11-18T16:41:23;97355.03;;;0.41;95.88
73016;BME280;61893;50.074;14.440;2022-11-18T16:44:32;97353.25;;;0.30;96.21
73016;BME280;61893;50.074;14.440;2022-11-18T16:47:21;97362.41;;;0.36;96.60
73016;BME280;61893;50.074;14.440;2022-11-18T16:51:16;97371.69;;;0.29;97.18
73016;BME280;61893;50.074;14.440;2022-11-18T16:54:23;97387.22;;;0.19;96.52
73016;BME280;61893;50.074;14.440;2022-11-18T16:57:33;97388.53;;;0.13;94.97
73016;BME280;61893;50.074;14.440;2022-11-18T17:03:51;97397.75;;;-0.05;92.87
73016;BME280;61893;50.074;14.440;2022-11-18T17:07:15;97411.56;;;-0.27;92.47
73016;BME280;61893;50.074;14.440;2022-11-18T17:10:33;97404.22;;;-0.22;93.65
73016;BME280;61893;50.074;14.440;2022-11-18T17:13:02;97415.63;;;-0.23;94.35
73016;BME280;61893;50.074;14.440;2022-11-18T17:15:44;97421.94;;;-0.26;93.23